sensor_id;sensor_type;location;lat;lon;timestamp;P1;durP1;ratioP1;P2;durP2;ratioP2
16314;SDS011;8266;52.150;4.768;2023-12-29T00:00:50;12.23;;;2.15;;
16314;SDS011;8266;52.150;4.768;2023-12-29T00:03:17;8.45;;;2.35;;
16314;SDS011;8266;52.150;4.768;2023-12-29T00:05:44;8.13;;;2.22;;
16314;SDS011;8266;52.150;4.768;2023-12-29T00:08:11;5.68;;;1.88;;
16314;SDS011;8266;52.150;4.768;2023-12-29T00:10:38;8.00;;;2.65;;
16314;SDS011;8266;52.150;4.768;2023-12-29T00:13:05;8.40;;;2.38;;
16314;SDS011;8266;52.150;4.768;2023-12-29T00:15:32;7.85;;;2.03;;
16314;SDS011;8266;52.150;4.768;2023-12-29T00:18:01;8.25;;;1.80;;
16314;SDS011;8266;52.150;4.768;2023-12-29T00:20:27;9.82;;;2.17;;
16314;SDS011;8266;52.150;4.768;2023-12-29T00:22:55;7.32;;;2.22;;
16314;SDS011;8266;52.150;4.768;2023-12-29T00:25:24;9.10;;;2.33;;
16314;SDS011;8266;52.150;4.768;2023-12-29T00:27:51;10.70;;;2.50;;
16314;SDS011;8266;52.150;4.768;2023-12-29T00:30:18;9.82;;;2.35;;
16314;SDS011;8266;52.150;4.768;2023-12-29T00:32:45;9.38;;;2.15;;
16314;SDS011;8266;52.150;4.768;2023-12-29T00:35:14;11.57;;;2.15;;
16314;SDS011;8266;52.150;4.768;2023-12-29T00:37:41;8.60;;;2.63;;
16314;SDS011;8266;52.150;4.768;2023-12-29T00:40:08;8.13;;;2.25;;
16314;SDS011;8266;52.150;4.768;2023-12-29T00:42:36;8.57;;;2.22;;
16314;SDS011;8266;52.150;4.768;2023-12-29T00:45:06;8.15;;;2.30;;
16314;SDS011;8266;52.150;4.768;2023-12-29T00:47:34;9.82;;;2.45;;
16314;SDS011;8266;52.150;4.768;2023-12-29T00:50:01;13.27;;;2.83;;
16314;SDS011;8266;52.150;4.768;2023-12-29T00:52:29;8.32;;;1.90;;
16314;SDS011;8266;52.150;4.768;2023-12-29T00:55:00;11.35;;;3.05;;
16314;SDS011;8266;52.150;4.768;2023-12-29T00:57:27;11.25;;;2.67;;
16314;SDS011;8266;52.150;4.768;2023-12-29T00:59:54;7.32;;;2.17;;
16314;SDS011;8266;52.150;4.768;2023-12-29T01:02:21;8.50;;;2.63;;
16314;SDS011;8266;52.150;4.768;2023-12-29T01:04:49;9.57;;;2.40;;
16314;SDS011;8266;52.150;4.768;2023-12-29T01:07:16;10.00;;;2.80;;
16314;SDS011;8266;52.150;4.768;2023-12-29T01:09:44;8.32;;;2.80;;
16314;SDS011;8266;52.150;4.768;2023-12-29T01:12:11;10.35;;;3.50;;
16314;SDS011;8266;52.150;4.768;2023-12-29T01:14:40;9.73;;;2.45;;
16314;SDS011;8266;52.150;4.768;2023-12-29T01:17:07;12.05;;;3.40;;
16314;SDS011;8266;52.150;4.768;2023-12-29T01:19:34;7.82;;;3.28;;
16314;SDS011;8266;52.150;4.768;2023-12-29T01:22:03;12.00;;;3.72;;
16314;SDS011;8266;52.150;4.768;2023-12-29T01:24:30;8.63;;;2.45;;
16314;SDS011;8266;52.150;4.768;2023-12-29T01:26:58;10.57;;;2.70;;
16314;SDS011;8266;52.150;4.768;2023-12-29T01:29:25;10.93;;;2.42;;
16314;SDS011;8266;52.150;4.768;2023-12-29T01:31:52;7.55;;;2.30;;
16314;SDS011;8266;52.150;4.768;2023-12-29T01:34:20;7.88;;;2.65;;
16314;SDS011;8266;52.150;4.768;2023-12-29T01:36:47;9.90;;;2.60;;
16314;SDS011;8266;52.150;4.768;2023-12-29T01:39:16;11.43;;;2.40;;
16314;SDS011;8266;52.150;4.768;2023-12-29T01:41:43;9.40;;;2.95;;
16314;SDS011;8266;52.150;4.768;2023-12-29T01:44:21;11.65;;;2.83;;
16314;SDS011;8266;52.150;4.768;2023-12-29T01:46:49;8.93;;;2.55;;
16314;SDS011;8266;52.150;4.768;2023-12-29T01:49:18;11.07;;;2.10;;
16314;SDS011;8266;52.150;4.768;2023-12-29T01:51:47;9.27;;;2.42;;
16314;SDS011;8266;52.150;4.768;2023-12-29T01:54:20;5.72;;;2.10;;
16314;SDS011;8266;52.150;4.768;2023-12-29T01:56:49;7.65;;;2.67;;
16314;SDS011;8266;52.150;4.768;2023-12-29T01:59:17;11.95;;;3.25;;
16314;SDS011;8266;52.150;4.768;2023-12-29T02:01:46;11.43;;;2.60;;
16314;SDS011;8266;52.150;4.768;2023-12-29T02:04:14;10.35;;;2.60;;
16314;SDS011;8266;52.150;4.768;2023-12-29T02:06:43;9.43;;;3.15;;
16314;SDS011;8266;52.150;4.768;2023-12-29T02:09:13;8.30;;;2.22;;
16314;SDS011;8266;52.150;4.768;2023-12-29T02:11:43;8.50;;;2.55;;
16314;SDS011;8266;52.150;4.768;2023-12-29T02:14:11;9.60;;;2.53;;
16314;SDS011;8266;52.150;4.768;2023-12-29T02:16:40;8.50;;;2.28;;
16314;SDS011;8266;52.150;4.768;2023-12-29T02:19:24;8.05;;;2.33;;
16314;SDS011;8266;52.150;4.768;2023-12-29T02:22:02;8.38;;;2.15;;
16314;SDS011;8266;52.150;4.768;2023-12-29T02:24:30;7.70;;;2.42;;
16314;SDS011;8266;52.150;4.768;2023-12-29T02:27:00;10.25;;;2.22;;
16314;SDS011;8266;52.150;4.768;2023-12-29T02:29:34;8.25;;;2.80;;
16314;SDS011;8266;52.150;4.768;2023-12-29T02:32:05;8.07;;;2.47;;
16314;SDS011;8266;52.150;4.768;2023-12-29T02:34:36;9.50;;;2.70;;
16314;SDS011;8266;52.150;4.768;2023-12-29T02:37:04;9.32;;;2.38;;
16314;SDS011;8266;52.150;4.768;2023-12-29T02:39:32;9.77;;;2.50;;
16314;SDS011;8266;52.150;4.768;2023-12-29T02:42:01;8.75;;;2.17;;
16314;SDS011;8266;52.150;4.768;2023-12-29T02:44:28;5.03;;;2.10;;
16314;SDS011;8266;52.150;4.768;2023-12-29T02:46:57;9.60;;;2.25;;
16314;SDS011;8266;52.150;4.768;2023-12-29T02:49:25;8.27;;;2.47;;
16314;SDS011;8266;52.150;4.768;2023-12-29T02:51:52;10.30;;;2.55;;
16314;SDS011;8266;52.150;4.768;2023-12-29T02:54:19;11.35;;;3.05;;
16314;SDS011;8266;52.150;4.768;2023-12-29T02:56:47;14.70;;;2.92;;
16314;SDS011;8266;52.150;4.768;2023-12-29T02:59:15;12.45;;;3.72;;
16314;SDS011;8266;52.150;4.768;2023-12-29T03:01:42;10.43;;;3.15;;
16314;SDS011;8266;52.150;4.768;2023-12-29T03:04:09;10.63;;;3.33;;
16314;SDS011;8266;52.150;4.768;2023-12-29T03:06:36;12.10;;;3.22;;
16314;SDS011;8266;52.150;4.768;2023-12-29T03:09:03;15.65;;;2.95;;
16314;SDS011;8266;52.150;4.768;2023-12-29T03:11:30;17.77;;;3.60;;
16314;SDS011;8266;52.150;4.768;2023-12-29T03:13:57;16.23;;;3.60;;
16314;SDS011;8266;52.150;4.768;2023-12-29T03:16:26;19.63;;;4.40;;
16314;SDS011;8266;52.150;4.768;2023-12-29T03:18:53;19.08;;;4.30;;
16314;SDS011;8266;52.150;4.768;2023-12-29T03:21:20;19.48;;;3.85;;
16314;SDS011;8266;52.150;4.768;2023-12-29T03:23:47;20.80;;;3.88;;
16314;SDS011;8266;52.150;4.768;2023-12-29T03:26:14;18.33;;;4.20;;
16314;SDS011;8266;52.150;4.768;2023-12-29T03:28:41;16.92;;;3.20;;
16314;SDS011;8266;52.150;4.768;2023-12-29T03:31:08;17.92;;;3.63;;
16314;SDS011;8266;52.150;4.768;2023-12-29T03:33:36;26.48;;;5.20;;
16314;SDS011;8266;52.150;4.768;2023-12-29T03:36:05;20.85;;;4.43;;
16314;SDS011;8266;52.150;4.768;2023-12-29T03:38:32;16.98;;;3.95;;
16314;SDS011;8266;52.150;4.768;2023-12-29T03:40:59;23.30;;;4.78;;
16314;SDS011;8266;52.150;4.768;2023-12-29T03:43:26;19.13;;;4.22;;
16314;SDS011;8266;52.150;4.768;2023-12-29T03:45:53;17.83;;;3.78;;
16314;SDS011;8266;52.150;4.768;2023-12-29T03:48:21;23.50;;;4.57;;
16314;SDS011;8266;52.150;4.768;2023-12-29T03:50:49;17.83;;;4.07;;
16314;SDS011;8266;52.150;4.768;2023-12-29T03:53:16;16.58;;;4.38;;
16314;SDS011;8266;52.150;4.768;2023-12-29T03:55:44;16.92;;;4.47;;
16314;SDS011;8266;52.150;4.768;2023-12-29T03:58:11;20.45;;;4.47;;
16314;SDS011;8266;52.150;4.768;2023-12-29T04:00:38;14.73;;;3.75;;
16314;SDS011;8266;52.150;4.768;2023-12-29T04:03:06;15.93;;;3.95;;
16314;SDS011;8266;52.150;4.768;2023-12-29T04:05:34;18.00;;;4.35;;
16314;SDS011;8266;52.150;4.768;2023-12-29T04:08:03;13.23;;;3.97;;
16314;SDS011;8266;52.150;4.768;2023-12-29T04:10:30;20.52;;;4.95;;
16314;SDS011;8266;52.150;4.768;2023-12-29T04:12:57;18.67;;;3.97;;
16314;SDS011;8266;52.150;4.768;2023-12-29T04:15:24;22.70;;;4.40;;
16314;SDS011;8266;52.150;4.768;2023-12-29T04:17:51;24.38;;;5.85;;
16314;SDS011;8266;52.150;4.768;2023-12-29T04:20:18;22.40;;;4.90;;
16314;SDS011;8266;52.150;4.768;2023-12-29T04:22:46;26.95;;;4.72;;
16314;SDS011;8266;52.150;4.768;2023-12-29T04:25:14;18.40;;;4.75;;
16314;SDS011;8266;52.150;4.768;2023-12-29T04:27:41;21.15;;;4.90;;
16314;SDS011;8266;52.150;4.768;2023-12-29T04:30:09;27.92;;;5.60;;
16314;SDS011;8266;52.150;4.768;2023-12-29T04:32:36;24.10;;;4.50;;
16314;SDS011;8266;52.150;4.768;2023-12-29T04:35:04;21.55;;;5.07;;
16314;SDS011;8266;52.150;4.768;2023-12-29T04:37:32;20.45;;;5.35;;
16314;SDS011;8266;52.150;4.768;2023-12-29T04:39:58;25.90;;;5.78;;
16314;SDS011;8266;52.150;4.768;2023-12-29T04:42:27;23.67;;;5.68;;
16314;SDS011;8266;52.150;4.768;2023-12-29T04:44:54;24.95;;;4.82;;
16314;SDS011;8266;52.150;4.768;2023-12-29T04:47:21;24.77;;;5.95;;
16314;SDS011;8266;52.150;4.768;2023-12-29T04:49:48;20.75;;;6.55;;
16314;SDS011;8266;52.150;4.768;2023-12-29T04:52:15;28.00;;;5.40;;
16314;SDS011;8266;52.150;4.768;2023-12-29T04:54:42;16.73;;;3.90;;
16314;SDS011;8266;52.150;4.768;2023-12-29T04:57:09;21.85;;;4.80;;
16314;SDS011;8266;52.150;4.768;2023-12-29T04:59:38;22.30;;;5.00;;
16314;SDS011;8266;52.150;4.768;2023-12-29T05:02:05;24.33;;;5.45;;
16314;SDS011;8266;52.150;4.768;2023-12-29T05:04:31;20.80;;;4.30;;
16314;SDS011;8266;52.150;4.768;2023-12-29T05:06:59;26.67;;;4.93;;
16314;SDS011;8266;52.150;4.768;2023-12-29T05:09:26;17.10;;;3.95;;
16314;SDS011;8266;52.150;4.768;2023-12-29T05:11:53;24.67;;;4.88;;
16314;SDS011;8266;52.150;4.768;2023-12-29T05:14:20;24.95;;;4.93;;
16314;SDS011;8266;52.150;4.768;2023-12-29T05:16:48;22.58;;;4.97;;
16314;SDS011;8266;52.150;4.768;2023-12-29T05:19:15;23.02;;;4.88;;
16314;SDS011;8266;52.150;4.768;2023-12-29T05:21:42;26.55;;;5.60;;
16314;SDS011;8266;52.150;4.768;2023-12-29T05:24:09;20.30;;;5.35;;
16314;SDS011;8266;52.150;4.768;2023-12-29T05:26:36;24.08;;;4.70;;
16314;SDS011;8266;52.150;4.768;2023-12-29T05:29:03;21.17;;;5.45;;
16314;SDS011;8266;52.150;4.768;2023-12-29T05:31:30;28.08;;;5.47;;
16314;SDS011;8266;52.150;4.768;2023-12-29T05:33:59;19.80;;;5.32;;
16314;SDS011;8266;52.150;4.768;2023-12-29T05:36:26;21.27;;;4.70;;
16314;SDS011;8266;52.150;4.768;2023-12-29T05:38:53;21.00;;;4.38;;
16314;SDS011;8266;52.150;4.768;2023-12-29T05:41:22;32.95;;;5.05;;
16314;SDS011;8266;52.150;4.768;2023-12-29T05:43:49;25.42;;;5.68;;
16314;SDS011;8266;52.150;4.768;2023-12-29T05:46:16;26.73;;;5.10;;
16314;SDS011;8266;52.150;4.768;2023-12-29T05:48:43;26.48;;;5.28;;
16314;SDS011;8266;52.150;4.768;2023-12-29T05:51:14;22.15;;;4.68;;
16314;SDS011;8266;52.150;4.768;2023-12-29T05:53:41;23.63;;;4.75;;
16314;SDS011;8266;52.150;4.768;2023-12-29T05:56:10;19.20;;;4.47;;
16314;SDS011;8266;52.150;4.768;2023-12-29T05:58:38;21.73;;;4.72;;
16314;SDS011;8266;52.150;4.768;2023-12-29T06:01:06;15.75;;;4.05;;
16314;SDS011;8266;52.150;4.768;2023-12-29T06:03:34;21.65;;;4.65;;
16314;SDS011;8266;52.150;4.768;2023-12-29T06:06:01;19.10;;;4.30;;
16314;SDS011;8266;52.150;4.768;2023-12-29T06:08:29;13.93;;;3.53;;
16314;SDS011;8266;52.150;4.768;2023-12-29T06:10:57;15.80;;;3.22;;
16314;SDS011;8266;52.150;4.768;2023-12-29T06:13:24;14.98;;;3.22;;
16314;SDS011;8266;52.150;4.768;2023-12-29T06:15:51;17.65;;;3.42;;
16314;SDS011;8266;52.150;4.768;2023-12-29T06:18:18;17.58;;;3.42;;
16314;SDS011;8266;52.150;4.768;2023-12-29T06:20:45;15.25;;;3.40;;
16314;SDS011;8266;52.150;4.768;2023-12-29T06:23:12;16.08;;;4.03;;
16314;SDS011;8266;52.150;4.768;2023-12-29T06:25:41;15.27;;;3.65;;
16314;SDS011;8266;52.150;4.768;2023-12-29T06:28:08;12.45;;;2.75;;
16314;SDS011;8266;52.150;4.768;2023-12-29T06:30:35;18.20;;;4.60;;
16314;SDS011;8266;52.150;4.768;2023-12-29T06:33:02;14.65;;;3.25;;
16314;SDS011;8266;52.150;4.768;2023-12-29T06:35:30;16.27;;;3.30;;
16314;SDS011;8266;52.150;4.768;2023-12-29T06:37:56;15.65;;;3.20;;
16314;SDS011;8266;52.150;4.768;2023-12-29T06:40:24;19.90;;;3.42;;
16314;SDS011;8266;52.150;4.768;2023-12-29T06:42:52;16.52;;;3.00;;
16314;SDS011;8266;52.150;4.768;2023-12-29T06:45:19;16.50;;;3.83;;
16314;SDS011;8266;52.150;4.768;2023-12-29T06:47:46;10.82;;;3.05;;
16314;SDS011;8266;52.150;4.768;2023-12-29T06:50:13;14.63;;;3.35;;
16314;SDS011;8266;52.150;4.768;2023-12-29T06:52:41;19.30;;;3.75;;
16314;SDS011;8266;52.150;4.768;2023-12-29T06:55:08;10.80;;;3.35;;
16314;SDS011;8266;52.150;4.768;2023-12-29T06:57:35;9.43;;;2.60;;
16314;SDS011;8266;52.150;4.768;2023-12-29T07:00:05;9.77;;;2.20;;
16314;SDS011;8266;52.150;4.768;2023-12-29T07:02:33;14.20;;;3.67;;
16314;SDS011;8266;52.150;4.768;2023-12-29T07:05:00;11.63;;;2.70;;
16314;SDS011;8266;52.150;4.768;2023-12-29T07:07:30;12.82;;;3.05;;
16314;SDS011;8266;52.150;4.768;2023-12-29T07:09:57;13.00;;;2.90;;
16314;SDS011;8266;52.150;4.768;2023-12-29T07:12:24;12.88;;;2.92;;
16314;SDS011;8266;52.150;4.768;2023-12-29T07:14:51;9.32;;;2.58;;
16314;SDS011;8266;52.150;4.768;2023-12-29T07:17:19;9.13;;;2.80;;
16314;SDS011;8266;52.150;4.768;2023-12-29T07:19:46;9.38;;;2.70;;
16314;SDS011;8266;52.150;4.768;2023-12-29T07:22:15;9.13;;;2.33;;
16314;SDS011;8266;52.150;4.768;2023-12-29T07:24:42;7.15;;;1.75;;
16314;SDS011;8266;52.150;4.768;2023-12-29T07:27:09;9.73;;;2.65;;
16314;SDS011;8266;52.150;4.768;2023-12-29T07:29:36;10.45;;;2.33;;
16314;SDS011;8266;52.150;4.768;2023-12-29T07:32:03;9.95;;;2.33;;
16314;SDS011;8266;52.150;4.768;2023-12-29T07:34:32;9.35;;;2.58;;
16314;SDS011;8266;52.150;4.768;2023-12-29T07:36:59;11.43;;;2.55;;
16314;SDS011;8266;52.150;4.768;2023-12-29T07:39:26;11.02;;;2.30;;
16314;SDS011;8266;52.150;4.768;2023-12-29T07:41:54;12.00;;;2.60;;
16314;SDS011;8266;52.150;4.768;2023-12-29T07:44:21;14.18;;;2.85;;
16314;SDS011;8266;52.150;4.768;2023-12-29T07:46:48;10.15;;;2.90;;
16314;SDS011;8266;52.150;4.768;2023-12-29T07:49:15;15.88;;;2.90;;
16314;SDS011;8266;52.150;4.768;2023-12-29T07:51:46;11.77;;;2.58;;
16314;SDS011;8266;52.150;4.768;2023-12-29T07:54:13;7.82;;;2.40;;
16314;SDS011;8266;52.150;4.768;2023-12-29T07:56:40;10.13;;;2.33;;
16314;SDS011;8266;52.150;4.768;2023-12-29T07:59:07;8.68;;;2.30;;
16314;SDS011;8266;52.150;4.768;2023-12-29T08:01:34;11.23;;;2.58;;
16314;SDS011;8266;52.150;4.768;2023-12-29T08:04:03;7.40;;;1.85;;
16314;SDS011;8266;52.150;4.768;2023-12-29T08:06:32;11.00;;;1.92;;
16314;SDS011;8266;52.150;4.768;2023-12-29T08:09:00;8.32;;;1.88;;
16314;SDS011;8266;52.150;4.768;2023-12-29T08:11:27;7.60;;;1.80;;
16314;SDS011;8266;52.150;4.768;2023-12-29T08:13:54;6.82;;;2.60;;
16314;SDS011;8266;52.150;4.768;2023-12-29T08:16:21;6.75;;;2.20;;
16314;SDS011;8266;52.150;4.768;2023-12-29T08:18:49;5.15;;;1.90;;
16314;SDS011;8266;52.150;4.768;2023-12-29T08:21:16;4.65;;;2.30;;
16314;SDS011;8266;52.150;4.768;2023-12-29T08:23:44;6.70;;;1.80;;
16314;SDS011;8266;52.150;4.768;2023-12-29T08:26:13;10.10;;;2.63;;
16314;SDS011;8266;52.150;4.768;2023-12-29T08:28:40;6.65;;;2.65;;
16314;SDS011;8266;52.150;4.768;2023-12-29T08:31:07;6.53;;;2.28;;
16314;SDS011;8266;52.150;4.768;2023-12-29T08:33:34;5.95;;;1.92;;
16314;SDS011;8266;52.150;4.768;2023-12-29T08:36:02;7.57;;;2.35;;
16314;SDS011;8266;52.150;4.768;2023-12-29T08:38:29;6.00;;;1.63;;
16314;SDS011;8266;52.150;4.768;2023-12-29T08:40:57;5.63;;;1.75;;
16314;SDS011;8266;52.150;4.768;2023-12-29T08:43:25;2.95;;;1.38;;
16314;SDS011;8266;52.150;4.768;2023-12-29T08:45:52;4.18;;;1.52;;
16314;SDS011;8266;52.150;4.768;2023-12-29T08:48:19;4.82;;;1.83;;
16314;SDS011;8266;52.150;4.768;2023-12-29T08:50:46;8.32;;;2.47;;
16314;SDS011;8266;52.150;4.768;2023-12-29T08:53:13;4.30;;;2.03;;
16314;SDS011;8266;52.150;4.768;2023-12-29T08:55:40;5.10;;;2.05;;
16314;SDS011;8266;52.150;4.768;2023-12-29T08:58:07;4.60;;;1.80;;
16314;SDS011;8266;52.150;4.768;2023-12-29T09:00:36;6.57;;;1.80;;
16314;SDS011;8266;52.150;4.768;2023-12-29T09:03:03;5.25;;;1.50;;
16314;SDS011;8266;52.150;4.768;2023-12-29T09:05:30;6.47;;;2.10;;
16314;SDS011;8266;52.150;4.768;2023-12-29T09:07:57;8.48;;;1.83;;
16314;SDS011;8266;52.150;4.768;2023-12-29T09:10:24;6.57;;;1.77;;
16314;SDS011;8266;52.150;4.768;2023-12-29T09:12:51;6.50;;;1.75;;
16314;SDS011;8266;52.150;4.768;2023-12-29T09:15:20;4.90;;;1.25;;
16314;SDS011;8266;52.150;4.768;2023-12-29T09:17:51;8.73;;;1.80;;
16314;SDS011;8266;52.150;4.768;2023-12-29T09:20:18;6.90;;;1.88;;
16314;SDS011;8266;52.150;4.768;2023-12-29T09:22:45;6.93;;;1.63;;
16314;SDS011;8266;52.150;4.768;2023-12-29T09:25:13;5.20;;;1.52;;
16314;SDS011;8266;52.150;4.768;2023-12-29T09:27:40;5.93;;;1.52;;
16314;SDS011;8266;52.150;4.768;2023-12-29T09:30:07;8.70;;;2.00;;
16314;SDS011;8266;52.150;4.768;2023-12-29T09:32:35;5.53;;;1.35;;
16314;SDS011;8266;52.150;4.768;2023-12-29T09:35:03;7.10;;;1.58;;
16314;SDS011;8266;52.150;4.768;2023-12-29T09:37:31;8.35;;;1.85;;
16314;SDS011;8266;52.150;4.768;2023-12-29T09:39:58;7.78;;;1.40;;
16314;SDS011;8266;52.150;4.768;2023-12-29T09:42:25;7.13;;;2.05;;
16314;SDS011;8266;52.150;4.768;2023-12-29T09:44:55;6.40;;;1.60;;
16314;SDS011;8266;52.150;4.768;2023-12-29T09:47:23;8.55;;;2.38;;
16314;SDS011;8266;52.150;4.768;2023-12-29T09:49:52;10.13;;;2.20;;
16314;SDS011;8266;52.150;4.768;2023-12-29T09:52:21;8.63;;;1.92;;
16314;SDS011;8266;52.150;4.768;2023-12-29T09:54:50;8.70;;;1.90;;
16314;SDS011;8266;52.150;4.768;2023-12-29T09:57:18;10.98;;;2.20;;
16314;SDS011;8266;52.150;4.768;2023-12-29T09:59:45;4.72;;;1.13;;
16314;SDS011;8266;52.150;4.768;2023-12-29T10:02:16;8.13;;;1.80;;
16314;SDS011;8266;52.150;4.768;2023-12-29T10:04:43;11.38;;;1.75;;
16314;SDS011;8266;52.150;4.768;2023-12-29T10:07:13;6.93;;;1.73;;
16314;SDS011;8266;52.150;4.768;2023-12-29T10:09:47;5.88;;;1.80;;
16314;SDS011;8266;52.150;4.768;2023-12-29T10:12:19;11.07;;;2.30;;
16314;SDS011;8266;52.150;4.768;2023-12-29T10:14:48;8.85;;;2.10;;
16314;SDS011;8266;52.150;4.768;2023-12-29T10:17:25;8.32;;;1.73;;
16314;SDS011;8266;52.150;4.768;2023-12-29T10:20:02;10.60;;;2.70;;
16314;SDS011;8266;52.150;4.768;2023-12-29T10:22:38;5.93;;;1.50;;
16314;SDS011;8266;52.150;4.768;2023-12-29T10:25:14;7.70;;;1.98;;
16314;SDS011;8266;52.150;4.768;2023-12-29T10:27:41;7.75;;;1.95;;
16314;SDS011;8266;52.150;4.768;2023-12-29T10:30:09;8.10;;;1.88;;
16314;SDS011;8266;52.150;4.768;2023-12-29T10:32:37;8.52;;;2.00;;
16314;SDS011;8266;52.150;4.768;2023-12-29T10:35:07;9.55;;;1.98;;
16314;SDS011;8266;52.150;4.768;2023-12-29T10:37:36;9.02;;;1.88;;
16314;SDS011;8266;52.150;4.768;2023-12-29T10:40:04;6.88;;;1.83;;
16314;SDS011;8266;52.150;4.768;2023-12-29T10:42:36;12.13;;;2.00;;
16314;SDS011;8266;52.150;4.768;2023-12-29T10:45:19;21.15;;;2.90;;
16314;SDS011;8266;52.150;4.768;2023-12-29T10:47:46;14.70;;;2.58;;
16314;SDS011;8266;52.150;4.768;2023-12-29T10:50:17;11.15;;;2.33;;
16314;SDS011;8266;52.150;4.768;2023-12-29T10:52:44;9.80;;;2.30;;
16314;SDS011;8266;52.150;4.768;2023-12-29T10:55:11;11.60;;;2.28;;
16314;SDS011;8266;52.150;4.768;2023-12-29T10:57:40;11.88;;;3.00;;
16314;SDS011;8266;52.150;4.768;2023-12-29T11:00:08;14.70;;;2.95;;
16314;SDS011;8266;52.150;4.768;2023-12-29T11:02:37;8.20;;;2.17;;
16314;SDS011;8266;52.150;4.768;2023-12-29T11:05:05;13.73;;;2.92;;
16314;SDS011;8266;52.150;4.768;2023-12-29T11:07:36;11.70;;;2.90;;
16314;SDS011;8266;52.150;4.768;2023-12-29T11:10:04;14.20;;;2.47;;
16314;SDS011;8266;52.150;4.768;2023-12-29T11:12:33;12.55;;;2.28;;
16314;SDS011;8266;52.150;4.768;2023-12-29T11:15:03;17.48;;;3.38;;
16314;SDS011;8266;52.150;4.768;2023-12-29T11:17:34;14.52;;;3.15;;
16314;SDS011;8266;52.150;4.768;2023-12-29T11:20:02;11.50;;;3.03;;
16314;SDS011;8266;52.150;4.768;2023-12-29T11:22:30;12.63;;;2.47;;
16314;SDS011;8266;52.150;4.768;2023-12-29T11:24:59;8.25;;;1.92;;
16314;SDS011;8266;52.150;4.768;2023-12-29T11:27:29;14.00;;;2.85;;
16314;SDS011;8266;52.150;4.768;2023-12-29T11:29:59;16.42;;;2.92;;
16314;SDS011;8266;52.150;4.768;2023-12-29T11:32:34;10.80;;;2.55;;
16314;SDS011;8266;52.150;4.768;2023-12-29T11:35:12;13.80;;;3.63;;
16314;SDS011;8266;52.150;4.768;2023-12-29T11:38:02;13.15;;;2.22;;
16314;SDS011;8266;52.150;4.768;2023-12-29T11:40:41;12.43;;;2.55;;
16314;SDS011;8266;52.150;4.768;2023-12-29T11:43:13;8.52;;;2.30;;
16314;SDS011;8266;52.150;4.768;2023-12-29T11:45:42;11.70;;;2.83;;
16314;SDS011;8266;52.150;4.768;2023-12-29T11:48:11;16.85;;;3.05;;
16314;SDS011;8266;52.150;4.768;2023-12-29T11:50:39;12.20;;;2.22;;
16314;SDS011;8266;52.150;4.768;2023-12-29T11:53:07;14.10;;;2.78;;
16314;SDS011;8266;52.150;4.768;2023-12-29T11:55:35;9.63;;;2.75;;
16314;SDS011;8266;52.150;4.768;2023-12-29T11:58:03;9.43;;;1.90;;
16314;SDS011;8266;52.150;4.768;2023-12-29T12:00:49;11.90;;;3.25;;
16314;SDS011;8266;52.150;4.768;2023-12-29T12:03:18;14.30;;;2.35;;
16314;SDS011;8266;52.150;4.768;2023-12-29T12:05:51;7.80;;;2.33;;
16314;SDS011;8266;52.150;4.768;2023-12-29T12:08:26;14.07;;;2.53;;
16314;SDS011;8266;52.150;4.768;2023-12-29T12:10:54;9.52;;;1.95;;
16314;SDS011;8266;52.150;4.768;2023-12-29T12:19:16;8.65;;;2.13;;
16314;SDS011;8266;52.150;4.768;2023-12-29T12:21:45;6.35;;;1.73;;
16314;SDS011;8266;52.150;4.768;2023-12-29T12:24:14;8.30;;;1.52;;
16314;SDS011;8266;52.150;4.768;2023-12-29T12:26:42;11.80;;;2.25;;
16314;SDS011;8266;52.150;4.768;2023-12-29T12:29:09;7.78;;;2.35;;
16314;SDS011;8266;52.150;4.768;2023-12-29T12:31:37;7.90;;;2.00;;
16314;SDS011;8266;52.150;4.768;2023-12-29T12:34:18;8.57;;;1.77;;
16314;SDS011;8266;52.150;4.768;2023-12-29T12:36:47;11.52;;;2.45;;
16314;SDS011;8266;52.150;4.768;2023-12-29T12:39:15;8.18;;;2.05;;
16314;SDS011;8266;52.150;4.768;2023-12-29T12:41:43;7.15;;;2.08;;
16314;SDS011;8266;52.150;4.768;2023-12-29T12:44:14;9.65;;;2.03;;
16314;SDS011;8266;52.150;4.768;2023-12-29T12:46:44;10.70;;;2.70;;
16314;SDS011;8266;52.150;4.768;2023-12-29T12:49:17;8.65;;;1.83;;
16314;SDS011;8266;52.150;4.768;2023-12-29T12:51:45;10.13;;;1.58;;
16314;SDS011;8266;52.150;4.768;2023-12-29T12:54:15;12.27;;;3.03;;
16314;SDS011;8266;52.150;4.768;2023-12-29T12:56:44;10.98;;;2.25;;
16314;SDS011;8266;52.150;4.768;2023-12-29T12:59:12;7.50;;;2.08;;
16314;SDS011;8266;52.150;4.768;2023-12-29T13:01:40;9.02;;;2.03;;
16314;SDS011;8266;52.150;4.768;2023-12-29T13:04:07;10.85;;;1.65;;
16314;SDS011;8266;52.150;4.768;2023-12-29T13:06:39;9.30;;;2.10;;
16314;SDS011;8266;52.150;4.768;2023-12-29T13:09:08;10.32;;;2.63;;
16314;SDS011;8266;52.150;4.768;2023-12-29T13:11:37;7.15;;;2.55;;
16314;SDS011;8266;52.150;4.768;2023-12-29T13:14:05;9.68;;;2.28;;
16314;SDS011;8266;52.150;4.768;2023-12-29T13:16:33;5.35;;;1.98;;
16314;SDS011;8266;52.150;4.768;2023-12-29T13:21:47;10.38;;;2.58;;
16314;SDS011;8266;52.150;4.768;2023-12-29T13:24:14;6.85;;;1.77;;
16314;SDS011;8266;52.150;4.768;2023-12-29T13:26:43;7.22;;;1.88;;
16314;SDS011;8266;52.150;4.768;2023-12-29T13:29:13;7.68;;;1.67;;
16314;SDS011;8266;52.150;4.768;2023-12-29T13:31:40;14.18;;;2.90;;
16314;SDS011;8266;52.150;4.768;2023-12-29T13:34:11;8.27;;;2.25;;
16314;SDS011;8266;52.150;4.768;2023-12-29T13:36:43;13.23;;;2.63;;
16314;SDS011;8266;52.150;4.768;2023-12-29T13:39:21;8.70;;;2.47;;
16314;SDS011;8266;52.150;4.768;2023-12-29T13:41:51;13.90;;;2.05;;
16314;SDS011;8266;52.150;4.768;2023-12-29T13:44:19;11.73;;;2.80;;
16314;SDS011;8266;52.150;4.768;2023-12-29T13:46:47;8.75;;;2.17;;
16314;SDS011;8266;52.150;4.768;2023-12-29T13:49:14;8.73;;;1.83;;
16314;SDS011;8266;52.150;4.768;2023-12-29T13:51:42;10.02;;;1.80;;
16314;SDS011;8266;52.150;4.768;2023-12-29T13:54:11;7.20;;;1.60;;
16314;SDS011;8266;52.150;4.768;2023-12-29T13:56:38;7.00;;;1.60;;
16314;SDS011;8266;52.150;4.768;2023-12-29T13:59:16;6.68;;;1.60;;
16314;SDS011;8266;52.150;4.768;2023-12-29T14:01:43;9.77;;;2.45;;
16314;SDS011;8266;52.150;4.768;2023-12-29T14:04:12;9.38;;;2.15;;
16314;SDS011;8266;52.150;4.768;2023-12-29T14:06:49;6.00;;;1.63;;
16314;SDS011;8266;52.150;4.768;2023-12-29T14:09:20;10.10;;;1.92;;
16314;SDS011;8266;52.150;4.768;2023-12-29T14:11:48;5.70;;;1.40;;
16314;SDS011;8266;52.150;4.768;2023-12-29T14:14:21;5.50;;;1.40;;
16314;SDS011;8266;52.150;4.768;2023-12-29T14:16:48;4.53;;;1.80;;
16314;SDS011;8266;52.150;4.768;2023-12-29T14:19:16;6.32;;;1.92;;
16314;SDS011;8266;52.150;4.768;2023-12-29T14:21:43;10.20;;;2.15;;
16314;SDS011;8266;52.150;4.768;2023-12-29T14:24:12;12.93;;;2.88;;
16314;SDS011;8266;52.150;4.768;2023-12-29T14:26:53;9.10;;;2.17;;
16314;SDS011;8266;52.150;4.768;2023-12-29T14:29:22;12.40;;;3.03;;
16314;SDS011;8266;52.150;4.768;2023-12-29T14:31:49;6.40;;;1.92;;
16314;SDS011;8266;52.150;4.768;2023-12-29T14:34:18;10.23;;;1.80;;
16314;SDS011;8266;52.150;4.768;2023-12-29T14:36:45;14.70;;;2.30;;
16314;SDS011;8266;52.150;4.768;2023-12-29T14:39:13;6.68;;;1.50;;
16314;SDS011;8266;52.150;4.768;2023-12-29T14:41:40;10.13;;;2.05;;
16314;SDS011;8266;52.150;4.768;2023-12-29T14:44:10;12.73;;;2.20;;
16314;SDS011;8266;52.150;4.768;2023-12-29T14:46:38;8.55;;;1.83;;
16314;SDS011;8266;52.150;4.768;2023-12-29T14:49:10;6.47;;;1.65;;
16314;SDS011;8266;52.150;4.768;2023-12-29T14:51:40;13.85;;;2.33;;
16314;SDS011;8266;52.150;4.768;2023-12-29T14:54:23;8.45;;;1.80;;
16314;SDS011;8266;52.150;4.768;2023-12-29T14:56:54;8.38;;;1.73;;
16314;SDS011;8266;52.150;4.768;2023-12-29T14:59:21;9.35;;;1.95;;
16314;SDS011;8266;52.150;4.768;2023-12-29T15:02:01;10.93;;;2.10;;
16314;SDS011;8266;52.150;4.768;2023-12-29T15:04:36;14.98;;;2.72;;
16314;SDS011;8266;52.150;4.768;2023-12-29T15:07:06;11.52;;;1.95;;
16314;SDS011;8266;52.150;4.768;2023-12-29T15:09:34;8.73;;;1.80;;